Flight Track Log - Related Links

Times and Time Zones

All times are in EDT time to prevent confusion due to time zone crossing. See the UAL1208 flight status page for this flight to view local times or setup timezone preferences in your user account.

Time Position Orientation Groundspeed Altitude Reporting Facility
EDT Latitude Longitude Course Direction KTS MPH feet Rate Location/Type
Fri 06:46:13 PM 29.9781 -95.2933 62° Northeast 173 199 900  Level Houston Center
Fri 06:46:48 PM 29.9872 -95.2731 62° Northeast 177 204 1,700 1,670 Climbing Houston Center
Fri 06:47:50 PM 30.0519 -95.2731 360° North 253 291 3,600 2,419 Climbing Houston Center
Fri 06:48:52 PM 30.1278 -95.3342 325° Northwest 277 319 6,700 3,048 Climbing Houston Center
Fri 06:49:54 PM 30.1972 -95.3889 326° Northwest 297 342 9,900 2,758 Climbing Houston Center
Fri 06:50:56 PM 30.2656 -95.4442 325° Northwest 298 343 12,400 1,935 Climbing Houston Center
Fri 06:51:58 PM 30.3439 -95.5044 326° Northwest 327 376 13,900 1,742 Climbing Houston Center
Fri 06:53:00 PM 30.4300 -95.5708 326° Northwest 362 417 16,000 2,274 Climbing Houston Center
Fri 06:54:02 PM 30.5361 -95.6525 326° Northwest 381 438 18,600 1,452 Climbing Houston Center
Fri 06:55:04 PM 30.6364 -95.7058 335° Northwest 392 451 19,000 629 Climbing Houston Center
Fri 06:56:06 PM 30.7314 -95.7581 335° Northwest 395 455 19,900 1,488 Climbing Houston Center
Fri 06:57:09 PM 30.8308 -95.8103 336° Northwest 391 450 22,100 2,064 Climbing Houston Center
Fri 06:58:11 PM 30.9544 -95.8761 335° Northwest 401 461 24,200 1,742 Climbing Houston Center
Fri 06:59:13 PM 31.0600 -95.9322 336° Northwest 411 473 25,700 1,403 Climbing Houston Center
Fri 07:00:15 PM 31.1667 -95.9850 337° Northwest 415 478 27,100 1,307 Climbing Houston Center
Fri 07:00:54 PM 31.2347 -96.0092 343° North 411 473 27,900 1,212 Climbing Fort Worth Center
Fri 07:01:54 PM 31.3564 -96.0583 341° North 424 488 29,100 1,100 Climbing Fort Worth Center
Fri 07:02:54 PM 31.4758 -96.1053 341° North 430 495 30,100 1,140 Climbing Fort Worth Center
Fri 07:03:55 PM 31.5933 -96.1475 343° North 441 507 31,400 1,250 Climbing Fort Worth Center
Fri 07:04:54 PM 31.7086 -96.1947 341° North 441 507 32,600 1,109 Climbing Fort Worth Center
Fri 07:05:54 PM 31.8258 -96.2422 341° North 441 507 33,600 992 Climbing Fort Worth Center
Fri 07:06:55 PM 31.9389 -96.2847 342° North 435 501 34,600 1,100 Climbing Fort Worth Center
Fri 07:07:54 PM 32.0564 -96.3325 341° North 440 506 35,800 706 Climbing Fort Worth Center
Fri 07:08:54 PM 32.1672 -96.3778 341° North 428 493 36,000 100 Climbing Fort Worth Center
Fri 07:09:54 PM 32.2556 -96.4578 323° Northwest 405 466 36,000  Level Fort Worth Center
Fri 07:10:54 PM 32.3397 -96.5528 316° Northwest 415 478 36,000  Level Fort Worth Center
Fri 07:11:54 PM 32.4197 -96.6431 316° Northwest 400 460 36,000  Level Fort Worth Center
Fri 07:12:55 PM 32.4911 -96.7261 316° Northwest 400 460 36,000  Level Fort Worth Center
Fri 07:13:54 PM 32.5731 -96.8192 316° Northwest 405 466 36,000  Level Fort Worth Center
Fri 07:14:54 PM 32.6528 -96.9100 316° Northwest 405 466 36,000  Level Fort Worth Center
Fri 07:15:55 PM 32.7347 -97.0033 316° Northwest 405 466 36,000  Level Fort Worth Center
Fri 07:16:54 PM 32.8183 -97.0969 317° Northwest 405 466 36,000  Level Fort Worth Center
Fri 07:17:54 PM 32.9083 -97.2006 316° Northwest 405 466 36,000  Level Fort Worth Center
Fri 07:18:55 PM 32.9772 -97.2919 312° West 405 466 36,000  Level Fort Worth Center
Fri 07:19:54 PM 33.0672 -97.4061 313° West 430 495 36,000  Level Fort Worth Center
Fri 07:20:54 PM 33.1381 -97.4953 314° West 418 481 36,000  Level Fort Worth Center
Fri 07:21:55 PM 33.2153 -97.5922 314° West 409 471 36,000  Level Fort Worth Center
Fri 07:22:54 PM 33.2903 -97.6892 313° West 403 464 36,000  Level Fort Worth Center
Fri 07:23:54 PM 33.3672 -97.7867 313° West 398 458 36,000  Level Fort Worth Center
Fri 07:24:55 PM 33.4400 -97.8839 312° West 393 452 36,000  Level Fort Worth Center
Fri 07:25:54 PM 33.5167 -97.9789 314° West 393 452 36,000  Level Fort Worth Center
Fri 07:26:54 PM 33.5914 -98.0792 312° West 393 452 36,000  Level Fort Worth Center
Fri 07:27:54 PM 33.6742 -98.1872 313° West 393 452 36,000  Level Fort Worth Center
Fri 07:28:54 PM 33.7486 -98.2828 313° West 398 458 36,000  Level Fort Worth Center
Fri 07:29:54 PM 33.8253 -98.3811 313° West 398 458 36,000  Level Fort Worth Center
Fri 07:30:54 PM 33.8975 -98.4819 311° West 398 458 36,000  Level Fort Worth Center
Fri 07:31:54 PM 33.9758 -98.5781 315° West 398 458 36,000  Level Fort Worth Center
Fri 07:32:54 PM 34.0606 -98.6694 318° Northwest 398 458 36,000  Level Fort Worth Center
Fri 07:33:54 PM 34.1328 -98.7608 314° West 405 466 36,000  Level Fort Worth Center
Fri 07:34:54 PM 34.2131 -98.8500 317° Northwest 405 466 36,000  Level Fort Worth Center
Fri 07:35:54 PM 34.2975 -98.9444 317° Northwest 405 466 36,000  Level Fort Worth Center
Fri 07:36:55 PM 34.3778 -99.0339 317° Northwest 398 458 36,000  Level Fort Worth Center
Fri 07:37:54 PM 34.4703 -99.1364 318° Northwest 398 458 36,000  Level Fort Worth Center
Fri 07:38:54 PM 34.5483 -99.2236 317° Northwest 392 451 36,000  Level Fort Worth Center
Fri 07:39:54 PM 34.6283 -99.3164 316° Northwest 392 451 36,000  Level Fort Worth Center
Fri 07:40:55 PM 34.7081 -99.4092 316° Northwest 397 457 36,000  Level Fort Worth Center
Fri 07:42:42 PM 34.8394 -99.5556 318° Northwest 400 460 36,000  Level Kansas City Center
Fri 07:43:44 PM 34.9200 -99.6483 317° Northwest 398 458 36,000  Level Kansas City Center
Fri 07:44:48 PM 35.0169 -99.7594 317° Northwest 398 458 36,000  Level Albuquerque Center
Fri 07:45:49 PM 35.0981 -99.8522 317° Northwest 398 458 36,000  Level Albuquerque Center
Fri 07:46:51 PM 35.1786 -99.9447 317° Northwest 397 457 36,000  Level Albuquerque Center
Fri 07:47:53 PM 35.2597 -100.0378 317° Northwest 398 458 36,000  Level Albuquerque Center
Fri 07:48:54 PM 35.3397 -100.1331 316° Northwest 398 458 36,000  Level Albuquerque Center
Fri 07:49:56 PM 35.4222 -100.2267 317° Northwest 400 460 36,000  Level Albuquerque Center
Fri 07:50:57 PM 35.5197 -100.3411 316° Northwest 401 461 36,000  Level Albuquerque Center
Fri 07:51:59 PM 35.6003 -100.4375 316° Northwest 402 463 36,000  Level Albuquerque Center
Fri 07:52:36 PM 35.6497 -100.4947 317° Northwest 402 463 36,000  Level Albuquerque Center
Fri 07:53:00 PM 35.6825 -100.5331 316° Northwest 403 464 36,000  Level Albuquerque Center
Fri 07:53:37 PM 35.7311 -100.5906 316° Northwest 403 464 36,000  Level Albuquerque Center
Fri 07:54:02 PM 35.7633 -100.6283 316° Northwest 402 463 36,000  Level Albuquerque Center
Fri 07:54:39 PM 35.8194 -100.6783 324° Northwest 410 472 36,000  Level Albuquerque Center
Fri 07:55:03 PM 35.8597 -100.7069 330° Northwest 420 483 36,000  Level Albuquerque Center
Fri 07:55:40 PM 35.9222 -100.7503 331° Northwest 419 482 36,000  Level Albuquerque Center
Fri 07:56:05 PM 35.9631 -100.7800 329° Northwest 422 486 36,000  Level Albuquerque Center
Fri 07:56:42 PM 36.0244 -100.8228 331° Northwest 422 486 36,000  Level Albuquerque Center
Fri 07:57:07 PM 36.0658 -100.8511 331° Northwest 422 486 36,000  Level Albuquerque Center
Fri 07:57:44 PM 36.1269 -100.8956 330° Northwest 422 486 36,000  Level Albuquerque Center
Fri 07:58:08 PM 36.1683 -100.9247 330° Northwest 422 486 36,000  Level Albuquerque Center
Fri 07:58:45 PM 36.2303 -100.9681 331° Northwest 424 488 36,000  Level Albuquerque Center
Fri 07:59:10 PM 36.2783 -101.0033 329° Northwest 424 488 36,000  Level Albuquerque Center
Fri 07:59:47 PM 36.3450 -101.0511 330° Northwest 428 493 36,000  Level Albuquerque Center
Fri 08:00:09 PM 36.3811 -101.0764 331° Northwest 428 493 36,000  Level Kansas City Center
Fri 08:01:11 PM 36.4931 -101.1558 330° Northwest 426 490 36,000  Level Kansas City Center
Fri 08:01:50 PM 36.5594 -101.2042 330° Northwest 428 493 36,000  Level Albuquerque Center
Fri 08:02:15 PM 36.5919 -101.2253 332° Northwest 425 489 36,000  Level Albuquerque Center
Fri 08:02:52 PM 36.6581 -101.2744 329° Northwest 427 491 36,000  Level Albuquerque Center
Fri 08:03:16 PM 36.7072 -101.3106 330° Northwest 429 494 36,000  Level Albuquerque Center
Fri 08:03:53 PM 36.7739 -101.3581 330° Northwest 430 495 36,000  Level Albuquerque Center
Fri 08:04:18 PM 36.8067 -101.3819 330° Northwest 429 494 36,000  Level Albuquerque Center
Fri 08:04:55 PM 36.8728 -101.4294 330° Northwest 429 494 36,000  Level Albuquerque Center
Fri 08:05:20 PM 36.9233 -101.4650 331° Northwest 430 495 36,000  Level Albuquerque Center
Fri 08:05:57 PM 36.9736 -101.5008 330° Northwest 431 496 36,000  Level Albuquerque Center
Fri 08:06:21 PM 37.0242 -101.5386 329° Northwest 434 499 36,000  Level Albuquerque Center
Fri 08:06:58 PM 37.0908 -101.5875 330° Northwest 435 501 36,000  Level Albuquerque Center
Fri 08:07:23 PM 37.1250 -101.6128 329° Northwest 437 503 36,000  Level Albuquerque Center
Fri 08:08:00 PM 37.1925 -101.6619 330° Northwest 439 505 36,000  Level Albuquerque Center
Fri 08:08:21 PM 37.2247 -101.6842 331° Northwest 434 499 36,000  Level Kansas City Center
Fri 08:09:22 PM 37.3431 -101.7731 329° Northwest 440 506 36,000  Level Kansas City Center
Fri 08:10:26 PM 37.4447 -101.8453 331° Northwest 438 504 36,000  Level Kansas City Center
Fri 08:11:05 PM 37.5294 -101.9094 329° Northwest 439 505 36,000  Level Albuquerque Center
Fri 08:12:40 PM 37.6814 -102.0217 330° Northwest 439 505 36,000  Level Denver Center
Fri 08:13:42 PM 37.8000 -102.1100 330° Northwest 441 507 36,000 -581 Level Denver Center
Fri 08:14:44 PM 37.8861 -102.2067 318° Northwest 434 499 34,800 -1,597 Descending Denver Center
Fri 08:15:46 PM 37.9778 -102.3314 313° West 431 496 32,700 -1,355 Descending Denver Center
Fri 08:16:48 PM 38.0603 -102.4442 313° West 451 519 32,000 -339 Descending Denver Center
Fri 08:17:50 PM 38.1547 -102.5722 313° West 445 512 32,000  Level Denver Center
Fri 08:18:51 PM 38.2347 -102.6836 312° West 445 512 32,000  Level Denver Center
Fri 08:19:53 PM 38.3172 -102.7961 313° West 452 520 32,000  Level Denver Center
Fri 08:20:55 PM 38.4111 -102.9261 313° West 446 513 32,000  Level Denver Center
Fri 08:21:57 PM 38.4931 -103.0372 313° West 450 518 32,000 -290 Level Denver Center
Fri 08:22:59 PM 38.5850 -103.1667 312° West 445 512 31,400 -774 Descending Denver Center
Fri 08:24:01 PM 38.6697 -103.2856 312° West 448 516 30,400 -823 Descending Denver Center
Fri 08:25:03 PM 38.7544 -103.4042 313° West 448 516 29,700 -927 Descending Denver Center
Fri 08:26:04 PM 38.8453 -103.5333 312° West 442 509 28,500 -1,415 Descending Denver Center
Fri 08:27:06 PM 38.9178 -103.6350 313° West 428 493 26,800 -1,935 Descending Denver Center
Fri 08:28:08 PM 38.9956 -103.7433 313° West 411 473 24,500 -2,032 Descending Denver Center
Fri 08:29:10 PM 39.0569 -103.8325 312° West 398 458 22,600 -2,226 Descending Denver Center
Fri 08:30:12 PM 39.1525 -103.9669 313° West 379 436 19,900 -2,177 Descending Denver Center
Fri 08:31:14 PM 39.2178 -104.0636 311° West 363 418 18,100 -1,317 Descending Denver Center
Fri 08:32:15 PM 39.2683 -104.1611 304° West 336 387 17,200 -1,122 Descending Denver Center
Fri 08:33:17 PM 39.2881 -104.2508 286° West 314 361 15,800 -1,355 Descending Denver Center
Fri 08:34:19 PM 39.3161 -104.3736 286° West 295 339 14,400 -1,097 Descending Denver Center
Fri 08:36:23 PM 39.3733 -104.5469 293° West 263 303 12,400 -876 Descending Denver Center
Fri 08:37:24 PM 39.4425 -104.5647 349° North 255 293 11,700 -976 Descending Denver Center
Fri 08:38:26 PM 39.5203 -104.5847 349° North 266 306 10,400 -1,016 Descending Denver Center
Fri 08:39:28 PM 39.5928 -104.6036 349° North 268 308 9,600 -774 Descending Denver Center

Login

Don't have an account? Register now (free) for customized features, flight alerts, and more!